createdAt,value
2019-01-02T00:00:59.322Z,77.26
2019-01-02T00:03:27.500Z,78.25
2019-01-02T00:05:56.454Z,78.35
2019-01-02T00:08:24.972Z,78.93
2019-01-02T00:10:53.284Z,77.26
2019-01-02T00:13:21.492Z,77.55
2019-01-02T00:15:50.538Z,78.11
2019-01-02T00:18:18.888Z,79.02
2019-01-02T00:20:49.193Z,77.94
2019-01-02T00:23:18.060Z,78.30
2019-01-02T00:25:46.305Z,77.95
2019-01-02T00:28:16.763Z,77.54
2019-01-02T00:30:45.525Z,76.78
2019-01-02T00:33:13.600Z,77.61
2019-01-02T00:35:42.614Z,77.40
2019-01-02T00:38:10.857Z,77.22
2019-01-02T00:40:39.587Z,77.83
2019-01-02T00:43:08.101Z,76.89
2019-01-02T00:45:37.196Z,77.23
2019-01-02T00:48:05.438Z,76.78
2019-01-02T00:50:39.755Z,77.44
2019-01-02T00:53:09.261Z,77.28
2019-01-02T00:55:38.292Z,78.50
2019-01-02T00:58:08.080Z,80.10
2019-01-02T01:00:39.049Z,80.63
2019-01-02T01:03:09.873Z,81.04
2019-01-02T01:05:38.564Z,80.02
2019-01-02T01:08:07.385Z,80.14
2019-01-02T01:10:35.929Z,79.63
2019-01-02T01:13:04.376Z,79.76
2019-01-02T01:15:32.729Z,78.53
2019-01-02T01:18:02.872Z,78.53
2019-01-02T01:20:31.664Z,78.86
2019-01-02T01:23:00.834Z,79.20
2019-01-02T01:25:30.570Z,79.19
2019-01-02T01:27:59.136Z,78.31
2019-01-02T01:30:27.345Z,79.26
2019-01-02T01:32:55.720Z,80.50
2019-01-02T01:35:24.493Z,82.46
2019-01-02T01:37:54.874Z,83.48
2019-01-02T01:40:23.809Z,83.41
2019-01-02T01:42:52.988Z,82.67
2019-01-02T01:45:21.723Z,83.34
2019-01-02T01:47:50.418Z,83.64
2019-01-02T01:50:19.069Z,83.34
2019-01-02T01:52:47.809Z,83.58
2019-01-02T01:55:15.965Z,83.59
2019-01-02T01:57:44.316Z,83.29
2019-01-02T02:00:15.013Z,83.28
2019-01-02T02:02:43.668Z,83.30
2019-01-02T02:05:11.867Z,83.51
2019-01-02T02:07:40.025Z,83.51
2019-01-02T02:10:13.813Z,83.57
2019-01-02T02:12:42.404Z,83.99
2019-01-02T02:15:10.887Z,83.39
2019-01-02T02:17:41.179Z,83.02
2019-01-02T02:20:11.514Z,82.67
2019-01-02T02:22:39.831Z,85.27
2019-01-02T02:25:10.627Z,88.26
2019-01-02T02:27:38.763Z,89.39
2019-01-02T02:30:09.379Z,90.34
2019-01-02T02:32:38.270Z,90.71
2019-01-02T02:35:07.345Z,90.90
2019-01-02T02:37:35.765Z,91.15
2019-01-02T02:40:04.840Z,91.82
2019-01-02T02:42:33.269Z,92.16
2019-01-02T02:45:02.158Z,92.53
2019-01-02T02:47:31.925Z,93.02
2019-01-02T02:50:00.556Z,93.14
2019-01-02T02:52:28.800Z,93.52
2019-01-02T02:54:57.188Z,93.36
2019-01-02T02:57:25.724Z,93.08
2019-01-02T02:59:53.830Z,93.25
2019-01-02T03:02:22.344Z,92.14
2019-01-02T03:04:50.520Z,92.44
2019-01-02T03:07:19.590Z,92.14
2019-01-02T03:09:48.151Z,91.55
2019-01-02T03:12:16.667Z,90.98
2019-01-02T03:14:44.929Z,90.74
2019-01-02T03:17:13.447Z,90.24
2019-01-02T03:19:41.939Z,90.22
2019-01-02T03:22:10.804Z,89.75
2019-01-02T03:24:39.570Z,89.29
2019-01-02T03:27:09.564Z,89.79
2019-01-02T03:29:37.782Z,89.72
2019-01-02T03:32:07.082Z,88.79
2019-01-02T03:34:36.956Z,88.84
2019-01-02T03:37:05.505Z,88.52
2019-01-02T03:39:33.660Z,88.58
2019-01-02T03:42:01.920Z,88.59
2019-01-02T03:44:30.218Z,88.57
2019-01-02T03:46:58.387Z,88.51
2019-01-02T03:49:26.617Z,88.84
2019-01-02T03:51:55.181Z,88.56
2019-01-02T03:54:23.718Z,88.78
2019-01-02T03:56:51.954Z,88.99
2019-01-02T03:59:20.070Z,89.05
2019-01-02T04:01:48.258Z,88.84
2019-01-02T04:04:16.688Z,88.56
2019-01-02T04:06:45.917Z,88.95
2019-01-02T04:09:14.610Z,88.58
2019-01-02T04:11:43.043Z,88.25
2019-01-02T04:14:11.367Z,87.35
2019-01-02T04:16:40.202Z,87.67
2019-01-02T04:19:08.489Z,87.29
2019-01-02T04:21:36.596Z,86.53
2019-01-02T04:24:04.816Z,87.36
2019-01-02T04:26:35.163Z,87.10
2019-01-02T04:29:03.358Z,87.01
2019-01-02T04:31:31.556Z,86.16
2019-01-02T04:34:00.849Z,85.34
2019-01-02T04:36:28.981Z,85.76
2019-01-02T04:38:58.211Z,85.95
2019-01-02T04:41:26.835Z,85.79
2019-01-02T04:43:55.253Z,85.16
2019-01-02T04:46:23.361Z,85.13
2019-01-02T04:48:51.729Z,85.33
2019-01-02T04:51:20.588Z,85.64
2019-01-02T04:53:48.899Z,85.94
2019-01-02T04:56:17.064Z,85.04
2019-01-02T04:58:45.925Z,85.07
2019-01-02T05:01:15.683Z,86.34
2019-01-02T05:03:43.986Z,86.69
2019-01-02T05:06:12.201Z,86.45
2019-01-02T05:08:40.345Z,86.67
2019-01-02T05:11:09.073Z,86.89
2019-01-02T05:13:37.317Z,86.88
2019-01-02T05:16:05.635Z,86.82
2019-01-02T05:18:34.420Z,86.18
2019-01-02T05:21:03.206Z,85.30
2019-01-02T05:23:31.452Z,85.68
2019-01-02T05:26:00.264Z,84.75
2019-01-02T05:28:28.404Z,85.21
2019-01-02T05:30:56.702Z,85.03
2019-01-02T05:33:24.780Z,85.06
2019-01-02T05:35:53.141Z,85.36
2019-01-02T05:38:21.959Z,85.03
2019-01-02T05:40:51.462Z,85.63
2019-01-02T05:43:19.610Z,85.57
2019-01-02T05:45:48.182Z,85.06
2019-01-02T05:48:16.704Z,84.32
2019-01-02T05:50:45.055Z,83.34
2019-01-02T05:53:13.341Z,82.52
2019-01-02T05:55:41.616Z,82.30
2019-01-02T05:58:10.791Z,82.92
2019-01-02T06:00:39.878Z,82.94
2019-01-02T06:03:08.193Z,82.22
2019-01-02T06:05:36.381Z,82.91
2019-01-02T06:08:05.167Z,82.49
2019-01-02T06:10:33.231Z,82.82
2019-01-02T06:13:01.363Z,82.20
2019-01-02T06:15:29.580Z,82.36
2019-01-02T06:17:58.056Z,82.32
2019-01-02T06:20:26.094Z,81.79
2019-01-02T06:22:54.298Z,81.25
2019-01-02T06:25:22.714Z,80.82
2019-01-02T06:27:51.268Z,81.35
2019-01-02T06:30:19.839Z,81.09
2019-01-02T06:32:48.444Z,80.58
2019-01-02T06:35:16.775Z,80.93
2019-01-02T06:37:45.388Z,81.28
2019-01-02T06:40:14.173Z,80.39
2019-01-02T06:42:42.428Z,81.20
2019-01-02T06:45:15.551Z,80.09
2019-01-02T06:47:44.581Z,80.72
2019-01-02T06:50:19.429Z,81.04
2019-01-02T06:52:47.627Z,80.96
2019-01-02T06:55:22.736Z,80.85
2019-01-02T06:57:57.771Z,79.93
2019-01-02T07:00:35.121Z,80.14
2019-01-02T07:03:05.192Z,79.85
2019-01-02T07:05:35.101Z,79.77
2019-01-02T07:08:03.979Z,79.56
2019-01-02T07:10:32.401Z,80.38
2019-01-02T07:13:00.669Z,79.86
2019-01-02T07:15:28.644Z,79.32
2019-01-02T07:17:56.742Z,79.92
2019-01-02T07:20:25.511Z,78.89
2019-01-02T07:22:53.691Z,78.33
2019-01-02T07:25:21.949Z,78.90
2019-01-02T07:27:50.480Z,78.59
2019-01-02T07:30:22.747Z,78.78
2019-01-02T07:32:51.231Z,79.36
2019-01-02T07:36:10.054Z,79.08
2019-01-02T07:38:53.978Z,80.00
2019-01-02T07:41:58.114Z,80.47
2019-01-02T07:45:17.386Z,81.68
2019-01-02T07:48:35.735Z,83.41
2019-01-02T07:51:30.919Z,84.82
2019-01-02T07:54:49.706Z,84.62
2019-01-02T07:58:19.417Z,84.73
2019-01-02T08:01:26.507Z,85.54
2019-01-02T08:04:35.964Z,85.94
2019-01-02T08:07:35.832Z,85.70
2019-01-02T08:10:24.690Z,85.28
2019-01-02T08:13:25.868Z,84.91
2019-01-02T08:16:47.794Z,84.76
2019-01-02T08:19:29.921Z,84.16
2019-01-02T08:22:42.109Z,83.40
2019-01-02T08:25:23.859Z,82.85
2019-01-02T08:28:20.134Z,83.08
2019-01-02T08:31:24.761Z,82.34
2019-01-02T08:34:43.728Z,82.08
2019-01-02T08:37:38.376Z,80.91
2019-01-02T08:40:24.612Z,79.57
2019-01-02T08:43:49.935Z,79.65
2019-01-02T08:46:38.655Z,78.85
2019-01-02T08:49:25.566Z,78.62
2019-01-02T08:52:36.885Z,78.78
2019-01-02T08:55:25.803Z,77.71
2019-01-02T08:58:33.012Z,76.77
2019-01-02T09:01:40.021Z,78.18
2019-01-02T09:04:41.343Z,79.33
2019-01-02T09:07:37.447Z,79.58
2019-01-02T09:10:49.684Z,79.79
2019-01-02T09:13:54.876Z,79.45
2019-01-02T09:17:06.952Z,79.40
2019-01-02T09:20:13.417Z,79.81
2019-01-02T09:23:07.403Z,79.65
2019-01-02T09:26:14.483Z,79.76
2019-01-02T09:29:27.402Z,79.63
2019-01-02T09:32:23.609Z,80.11
2019-01-02T09:35:20.087Z,79.21
2019-01-02T09:38:50.712Z,78.90
2019-01-02T09:42:01.996Z,78.83
2019-01-02T09:45:09.283Z,78.31
2019-01-02T09:48:11.942Z,77.96
2019-01-02T09:51:24.480Z,76.89
2019-01-02T09:54:52.769Z,76.01
2019-01-02T09:58:16.574Z,74.92
2019-01-02T10:01:30.591Z,75.31
2019-01-02T10:04:41.266Z,75.13
2019-01-02T10:07:44.937Z,73.42
2019-01-02T10:10:40.620Z,73.65
2019-01-02T10:14:11.801Z,72.92
2019-01-02T10:17:23.778Z,70.75
2019-01-02T10:20:44.019Z,69.13
2019-01-02T10:23:52.036Z,66.00
2019-01-02T10:26:58.307Z,66.00
2019-01-02T10:30:15.939Z,66.59
2019-01-02T10:33:14.704Z,63.86
2019-01-02T10:36:24.275Z,63.35
2019-01-02T10:39:27.164Z,63.72
2019-01-02T10:42:44.494Z,61.42
2019-01-02T10:45:50.318Z,61.44
2019-01-02T10:49:06.033Z,60.36
2019-01-02T10:52:37.332Z,59.99
2019-01-02T10:55:56.665Z,60.59
2019-01-02T10:58:59.753Z,59.17
2019-01-02T11:02:06.635Z,57.32
2019-01-02T11:04:59.895Z,57.73
2019-01-02T11:07:56.833Z,57.35
2019-01-02T11:11:16.321Z,56.50
2019-01-02T11:14:11.470Z,54.50
2019-01-02T11:17:17.343Z,55.62
2019-01-02T11:20:39.629Z,53.75
2019-01-02T11:23:45.899Z,54.31
2019-01-02T11:27:05.169Z,54.91
2019-01-02T11:30:21.133Z,56.38
2019-01-02T11:33:35.719Z,57.01
2019-01-02T11:37:01.653Z,55.59
2019-01-02T11:39:58.036Z,57.85
2019-01-02T11:43:18.769Z,54.59
2019-01-02T11:45:47.468Z,54.99
2019-01-02T11:48:17.139Z,56.30
2019-01-02T11:50:45.758Z,53.86
2019-01-02T11:53:14.350Z,53.71
2019-01-02T11:55:43.240Z,55.11
2019-01-02T11:58:11.562Z,53.14
2019-01-02T12:00:40.234Z,52.86
2019-01-02T12:03:08.462Z,53.67
2019-01-02T12:05:36.930Z,54.40
2019-01-02T12:08:05.917Z,52.17
2019-01-02T12:10:34.930Z,52.97
2019-01-02T12:13:03.811Z,52.95
2019-01-02T12:15:32.216Z,52.66
2019-01-02T12:18:00.757Z,53.17
2019-01-02T12:20:29.440Z,52.52
2019-01-02T12:22:58.107Z,51.30
2019-01-02T12:25:26.219Z,50.14
2019-01-02T12:27:56.488Z,53.84
2019-01-02T12:30:25.598Z,51.96
2019-01-02T12:32:53.731Z,52.06
2019-01-02T12:35:22.249Z,51.63
2019-01-02T12:37:50.841Z,53.24
2019-01-02T12:40:19.171Z,52.22
2019-01-02T12:42:47.720Z,52.07
2019-01-02T12:45:16.091Z,51.22
2019-01-02T12:47:44.629Z,50.83
2019-01-02T12:50:13.338Z,52.54
2019-01-02T12:52:41.544Z,51.80
2019-01-02T12:55:09.899Z,49.88
2019-01-02T12:57:38.536Z,49.80
2019-01-02T13:00:11.230Z,48.20
2019-01-02T13:03:10.519Z,49.25
2019-01-02T13:06:18.017Z,49.62
2019-01-02T13:09:45.808Z,48.08
2019-01-02T13:12:48.679Z,47.03
2019-01-02T13:16:07.334Z,48.10
2019-01-02T13:19:26.403Z,47.40
2019-01-02T13:22:34.796Z,47.03
2019-01-02T13:25:24.438Z,47.38
2019-01-02T13:28:16.223Z,47.22
2019-01-02T13:31:37.950Z,48.31
2019-01-02T13:34:42.752Z,46.78
2019-01-02T13:37:58.165Z,45.87
2019-01-02T13:40:58.800Z,45.37
2019-01-02T13:44:09.451Z,44.87
2019-01-02T13:47:12.144Z,44.38
2019-01-02T13:50:00.790Z,47.17
2019-01-02T13:52:29.036Z,47.58
2019-01-02T13:55:02.111Z,47.35
2019-01-02T13:57:31.005Z,46.50
2019-01-02T13:59:59.179Z,47.54
2019-01-02T14:02:27.750Z,47.29
2019-01-02T14:04:56.303Z,46.87
2019-01-02T14:07:25.564Z,46.44
2019-01-02T14:09:53.761Z,47.70
2019-01-02T14:12:21.932Z,48.17
2019-01-02T14:14:50.617Z,46.83
2019-01-02T14:17:19.728Z,46.89
2019-01-02T14:19:48.049Z,46.92
2019-01-02T14:22:18.942Z,48.76
2019-01-02T14:24:47.528Z,48.68
2019-01-02T14:27:15.793Z,49.42
2019-01-02T14:29:43.945Z,49.31
2019-01-02T14:32:12.234Z,48.97
2019-01-02T14:34:40.738Z,48.96
2019-01-02T14:37:08.895Z,52.24
2019-01-02T14:39:36.949Z,53.05
2019-01-02T14:42:05.710Z,54.69
2019-01-02T14:44:33.830Z,54.75
2019-01-02T14:47:02.277Z,54.99
2019-01-02T14:49:30.992Z,56.01
2019-01-02T14:51:59.581Z,56.77
2019-01-02T14:54:27.935Z,56.87
2019-01-02T14:56:57.202Z,58.88
2019-01-02T14:59:26.353Z,58.07
2019-01-02T15:01:55.254Z,56.70
2019-01-02T15:04:23.531Z,57.77
2019-01-02T15:06:52.565Z,58.50
2019-01-02T15:09:20.555Z,57.91
2019-01-02T15:11:49.592Z,57.97
2019-01-02T15:14:18.905Z,58.17
2019-01-02T15:16:47.123Z,58.40
2019-01-02T15:19:15.410Z,57.90
2019-01-02T15:21:45.560Z,59.98
2019-01-02T15:24:13.728Z,59.05
2019-01-02T15:26:44.156Z,60.68
2019-01-02T15:29:12.225Z,60.44
2019-01-02T15:31:40.669Z,60.74
2019-01-02T15:34:10.021Z,58.97
2019-01-02T15:36:41.049Z,58.70
2019-01-02T15:39:09.230Z,59.09
2019-01-02T15:41:37.488Z,57.27
2019-01-02T15:44:06.859Z,58.81
2019-01-02T15:46:37.641Z,56.44
2019-01-02T15:49:06.376Z,57.28
2019-01-02T15:51:35.160Z,57.82
2019-01-02T15:54:03.792Z,56.51
2019-01-02T15:56:32.182Z,58.52
2019-01-02T15:59:00.958Z,57.91
2019-01-02T16:01:29.544Z,60.54
2019-01-02T16:03:57.892Z,57.85
2019-01-02T16:06:26.364Z,58.61
2019-01-02T16:08:55.596Z,58.77
2019-01-02T16:11:24.800Z,59.92
2019-01-02T16:13:53.140Z,60.26
2019-01-02T16:16:21.919Z,61.40
2019-01-02T16:18:51.153Z,59.63
2019-01-02T16:21:19.228Z,60.49
2019-01-02T16:23:47.418Z,60.51
2019-01-02T16:26:15.685Z,60.38
2019-01-02T16:28:44.614Z,60.52
2019-01-02T16:31:13.414Z,60.93
2019-01-02T16:33:41.551Z,61.74
2019-01-02T16:36:11.238Z,63.91
2019-01-02T16:38:39.930Z,64.28
2019-01-02T16:41:08.218Z,63.46
2019-01-02T16:43:36.372Z,64.53
2019-01-02T16:46:04.912Z,65.00
2019-01-02T16:48:33.551Z,65.00
2019-01-02T16:51:02.022Z,65.07
2019-01-02T16:53:30.277Z,65.77
2019-01-02T16:55:59.057Z,65.72
2019-01-02T16:58:33.154Z,66.35
2019-01-02T17:01:01.385Z,66.00
2019-01-02T17:03:31.205Z,64.29
2019-01-02T17:06:08.267Z,64.02
2019-01-02T17:08:42.776Z,64.34
2019-01-02T17:11:11.524Z,65.25
2019-01-02T17:13:40.199Z,64.61
2019-01-02T17:16:08.734Z,66.00
2019-01-02T17:18:37.126Z,66.55
2019-01-02T17:21:05.365Z,67.51
2019-01-02T17:23:34.537Z,68.63
2019-01-02T17:26:02.649Z,67.88
2019-01-02T17:28:31.704Z,68.64
2019-01-02T17:30:59.839Z,68.85
2019-01-02T17:33:28.803Z,68.53
2019-01-02T17:36:00.455Z,68.69
2019-01-02T17:38:29.926Z,69.94
2019-01-02T17:40:58.316Z,69.87
2019-01-02T17:43:26.600Z,69.65
2019-01-02T17:45:54.819Z,71.23
2019-01-02T17:48:24.242Z,70.52
2019-01-02T17:50:52.911Z,72.39
2019-01-02T17:53:22.324Z,72.39
2019-01-02T17:55:51.214Z,70.16
2019-01-02T17:58:21.117Z,71.48
2019-01-02T18:00:49.649Z,71.70
2019-01-02T18:03:18.033Z,72.76
2019-01-02T18:05:46.521Z,73.18
2019-01-02T18:08:26.283Z,73.13
2019-01-02T18:10:55.672Z,73.93
2019-01-02T18:13:24.050Z,73.65
2019-01-02T18:15:52.577Z,74.55
2019-01-02T18:18:21.788Z,74.40
2019-01-02T18:20:50.034Z,73.78
2019-01-02T18:23:19.233Z,73.47
2019-01-02T18:25:47.454Z,74.37
2019-01-02T18:28:15.966Z,74.90
2019-01-02T18:30:44.277Z,74.90
2019-01-02T18:33:12.852Z,75.23
2019-01-02T18:35:41.836Z,75.66
2019-01-02T18:38:10.688Z,75.95
2019-01-02T18:40:38.843Z,75.95
2019-01-02T18:43:08.730Z,75.78
2019-01-02T18:45:37.392Z,75.53
2019-01-02T18:48:09.570Z,76.15
2019-01-02T18:50:38.295Z,76.58
2019-01-02T18:53:07.053Z,76.21
2019-01-02T18:55:36.797Z,76.19
2019-01-02T18:58:04.986Z,77.31
2019-01-02T19:00:33.289Z,77.54
2019-01-02T19:03:02.979Z,77.54
2019-01-02T19:05:31.271Z,77.80
2019-01-02T19:07:59.880Z,79.04
2019-01-02T19:10:29.077Z,79.93
2019-01-02T19:12:58.117Z,78.84
2019-01-02T19:15:26.794Z,77.36
2019-01-02T19:17:56.532Z,77.71
2019-01-02T19:20:26.469Z,77.23
2019-01-02T19:22:54.968Z,77.23
2019-01-02T19:25:23.362Z,77.32
2019-01-02T19:27:51.258Z,78.25
2019-01-02T19:30:19.782Z,79.03
2019-01-02T19:32:47.893Z,79.22
2019-01-02T19:35:16.968Z,79.15
2019-01-02T19:37:45.592Z,80.23
2019-01-02T19:40:14.401Z,80.34
2019-01-02T19:42:42.613Z,79.88
2019-01-02T19:45:11.185Z,80.13
2019-01-02T19:47:39.643Z,80.13
2019-01-02T19:50:11.168Z,80.63
2019-01-02T19:52:39.495Z,80.61
2019-01-02T19:55:10.602Z,80.67
2019-01-02T19:57:41.678Z,80.91
2019-01-02T20:00:11.218Z,81.18
2019-01-02T20:02:40.348Z,81.18
2019-01-02T20:05:08.448Z,81.75
2019-01-02T20:07:36.896Z,81.43
2019-01-02T20:10:08.074Z,81.51
2019-01-02T20:12:36.275Z,80.63
2019-01-02T20:15:06.182Z,81.36
2019-01-02T20:17:38.860Z,81.36
2019-01-02T20:20:05.934Z,81.79
2019-01-02T20:22:34.822Z,81.67
2019-01-02T20:25:03.414Z,81.60
2019-01-02T20:27:31.817Z,81.30
2019-01-02T20:29:59.821Z,81.39
2019-01-02T20:32:27.885Z,81.32
2019-01-02T20:34:56.384Z,80.75
2019-01-02T20:37:24.744Z,81.67
2019-01-02T20:39:57.531Z,80.19
2019-01-02T20:42:34.751Z,78.93
2019-01-02T20:45:04.243Z,79.15
2019-01-02T20:47:33.064Z,79.67
2019-01-02T20:50:01.419Z,79.67
2019-01-02T20:52:29.767Z,79.74
2019-01-02T20:54:57.972Z,78.99
2019-01-02T20:57:27.601Z,78.99
2019-01-02T20:59:56.945Z,79.39
2019-01-02T21:02:26.942Z,78.19
2019-01-02T21:04:55.143Z,78.11
2019-01-02T21:07:23.445Z,78.11
2019-01-02T21:09:51.552Z,78.35
2019-01-02T21:12:21.307Z,78.35
2019-01-02T21:14:49.888Z,78.57
2019-01-02T21:17:18.454Z,78.84
2019-01-02T21:19:46.736Z,77.78
2019-01-02T21:22:15.751Z,77.43
2019-01-02T21:28:15.258Z,76.66
2019-01-02T21:31:01.957Z,75.60
2019-01-02T21:33:49.013Z,75.60
2019-01-02T21:36:36.302Z,75.86
2019-01-02T21:39:23.159Z,75.17
2019-01-02T21:42:09.825Z,76.30
2019-01-02T21:44:56.947Z,75.82
2019-01-02T21:47:44.453Z,76.19
2019-01-02T21:50:31.171Z,75.71
2019-01-02T21:53:17.977Z,75.62
2019-01-02T21:55:46.423Z,75.57
2019-01-02T21:58:15.287Z,76.07
2019-01-02T22:00:44.098Z,76.90
2019-01-02T22:03:12.540Z,76.30
2019-01-02T22:05:42.489Z,75.28
2019-01-02T22:08:11.491Z,76.40
2019-01-02T22:10:40.115Z,75.18
2019-01-02T22:13:12.518Z,76.86
2019-01-02T22:15:44.122Z,76.62
2019-01-02T22:18:13.867Z,77.57
2019-01-02T22:20:43.013Z,77.62
2019-01-02T22:23:11.403Z,76.11
2019-01-02T22:25:40.367Z,76.53
2019-01-02T22:28:08.807Z,77.16
2019-01-02T22:30:37.624Z,76.78
2019-01-02T22:33:05.933Z,76.66
2019-01-02T22:35:34.346Z,74.95
2019-01-02T22:38:03.112Z,74.85
2019-01-02T22:40:32.012Z,76.92
2019-01-02T22:43:00.308Z,77.80
2019-01-02T22:45:28.437Z,76.97
2019-01-02T22:47:57.359Z,76.53
2019-01-02T22:50:26.222Z,75.93
2019-01-02T22:52:55.314Z,76.52
2019-01-02T22:55:23.461Z,76.24
2019-01-02T22:57:52.117Z,75.55
2019-01-02T23:00:39.123Z,75.91
2019-01-02T23:03:33.435Z,76.97
2019-01-02T23:06:36.705Z,76.41
2019-01-02T23:09:24.439Z,75.78
2019-01-02T23:12:16.840Z,76.78
2019-01-02T23:15:05.022Z,77.24
2019-01-02T23:17:53.882Z,76.54
2019-01-02T23:20:42.491Z,76.30
2019-01-02T23:23:37.231Z,75.50
2019-01-02T23:26:25.575Z,76.20
2019-01-02T23:29:23.961Z,77.16
2019-01-02T23:32:11.589Z,76.63
2019-01-02T23:35:17.754Z,76.56
2019-01-02T23:38:15.113Z,75.39
2019-01-02T23:41:09.191Z,74.81
2019-01-02T23:43:56.091Z,76.74
2019-01-02T23:46:53.165Z,76.85
2019-01-02T23:50:01.677Z,77.59
2019-01-02T23:52:52.892Z,78.37
2019-01-02T23:55:44.409Z,79.56
2019-01-02T23:58:31.222Z,80.10
